Friday, July 25, 2014
20:41 UTC
  |  Log In   |  Register Free
Airport Search:

Rwj Airpark Airport
(54T)

Rwj Airpark Airport Diagram
No Airport Diagram Available

FAA data valid effective July 24, 2014 until September 18, 2014 (unless otherwise noted).

 
 
 
 
 
 
 
 
 
 
 
 
 
 

Current Aviation Weather for Rwj Airpark Airport (54T)

The most recent METAR observation for KEFD was updated at: 1850 UTC
METAR Summary (Translated METAR)
KEFD
251850Z 20004KT 7SM BKN035 BKN250 31/22 A3002
KHOU
(6.7 nm NW from KEFD)
251853Z 21007KT 10SM SCT043 SCT110 SCT240 32/21 A3000 RMK AO2 SLP163 T03220211
TAF Summary (Translated TAF)
KEFD
2512/2618 VRB06KT 9999 SCT030 SCT250 QNH2999INS TEMPO 2512/2513 9000 -TSRA SCT060CB BECMG 2522/2523 20009KT 9999 SKC QNH2995INS BECMG 2605/2606 20006KT 9999 BKN030 QNH2999INS BECMG 2616/2617 17009KT 9999 SCT050 QNH2998INS TX33/2521Z TN25/2512Z
KHOU
(6.7 nm NW from KEFD)
251720Z 2518/2618 23006KT P6SM SCT040 FM252100 17007KT P6SM VCTS SCT045CB FM260100 VRB04KT P6SM SCT250 FM261500 21007KT P6SM SCT030
  Airport Weather Conditions for 54T

Current weather conditions are
not available for 54T


The nearest NOAA weather station
is at EFD, (18.7 nm SW from 54T)
  
 Current Weather at EFD
88° F
Mostly Cloudy
South winds at 4.6 mph
EFD NOAA Radar

Pressure: 30.02 in
Humidity: 59%
Wind: South at 4.6 MPH (4 KT)
Dew Point: 71.6°F
Visibility: 7.00 mi


Airport Weather Forecast for 54T

Translated METAR and TAF for KEFD
Translated METAR for KEFD (2035 UTC 25 July 2014)
found at http://aviationweather.gov/adds/metars/
 
METAR text: KEFD 251950Z 20006KT 7SM BKN035 BKN250 31/22 A3000
Conditions at: KEFD (HOUSTON/ELLINGTO, TX, US) observed 1950 UTC 25 July 2014
Temperature: 31.0°C (88°F)
Dewpoint: 22.0°C (72°F) [RH = 59%]
Pressure (altimeter): 30.00 inches Hg (1016.0 mb)
Winds: from the SSW (200 degrees) at 7 MPH (6 knots; 3.1 m/s)
Visibility: 7 miles (11 km)
Ceiling: 3500 feet AGL
Clouds: broken clouds at 3500 feet AGL
broken clouds at 25000 feet AGL
Weather: no significant weather observed at this time
Translated TAF for KEFD
Forecast for: KEFD (HOUSTON/ELLINGTO, TX, US)
TAF Text: TAF KEFD 2520/2702 17009KT 9999 FEW030 QNH2994INS
Forecast period: 2000 UTC 25 July 2014 to 0200 UTC 27 July 2014
Forecast type: FROM: standard forecast or significant change
Winds: from the S (170 degrees) at 10 MPH (9 knots; 4.7 m/s)
Visibility: 6 or more miles (10+ km)
Clouds: few clouds at 3000 feet AGL
Weather: no significant weather forecast for this period
TAF Text: TEMPO 2520/2523 17010G15KT 8000 -TSRA BKN035CB TX33/2521Z TN24/2612Z
Forecast period: 2000 to 2300 UTC 25 July 2014
Forecast type: TEMPORARY: The following changes expected for less than half the time period
Winds: from the S (170 degrees) at 12 MPH (10 knots; 5.2 m/s)
gusting to 17 MPH (15 knots; 7.8 m/s)
Visibility: 5 miles (8 km)
Ceiling: 3500 feet AGL
Clouds: broken clouds at 3500 feet AGL
Weather: -TSRA  (light rain associated with thunderstorm(s))

Find All Airport Services Find A Hotel Find A Rental Car Find A Golf Course Find A Restaurant $100 Hamburger



FBO's on the Field
FBO Company Facility Photos Services Transportation Aviation Fuel Prices: Prices include tax
Catering Weather Repair Courtesy Rental Type 100LL JetA JetA+ MOGAS 8087
 
Bay Area Aviation Inc

This FBO has not yet been rated
FS:Avfuel
Last Updated: Jul-25
Login to update fuel prices
SS:
Contact Bay Area Aviation IncMore FBO Information
 
Add another FBO Facility Photos Catering Weather Repair Courtesy Rental Type 100LL JetA JetA+ MOGAS 8087
Services Transportation Aviation Fuel Prices: Prices include tax


GlobalAir.com Airport Resource Center model-print
model-print
model-print
model-print